Time;durP1;ratioP1;P1;durP2;ratioP2;P2;SDS_P1;SDS_P2;PMS_P1;PMS_P2;Temp;Humidity;BMP_temperature;BMP_pressure;BME280_temperature;BME280_humidity;BME280_pressure;Samples;Min_cycle;Max_cycle;Signal;HPM_P1;HPM_P2
2022/05/30 00:00:43;;;;;;;10.45;2.25;;;;;;;9.67;80.23;101190.78;5030501;28;20029;-74
2022/05/30 00:03:09;;;;;;;8.52;2.45;;;;;;;9.62;80.99;101185.19;5034283;28;20033;-74
2022/05/30 00:05:35;;;;;;;6.43;2.33;;;;;;;9.61;81.00;101178.13;4995467;28;20133;-74
2022/05/30 00:08:01;;;;;;;11.13;1.95;;;;;;;9.63;79.83;101184.16;5010878;28;20092;-74
2022/05/30 00:10:28;;;;;;;8.27;2.00;;;;;;;9.56;81.03;101172.53;5012629;28;20038;-74
2022/05/30 00:12:55;;;;;;;7.68;1.90;;;;;;;9.47;81.01;101171.09;5011621;28;20044;-74
2022/05/30 00:15:22;;;;;;;5.05;1.70;;;;;;;9.49;81.76;101179.81;5032103;28;20067;-74
2022/05/30 00:17:48;;;;;;;6.82;2.25;;;;;;;9.51;81.98;101183.09;5033297;28;20029;-74
2022/05/30 00:20:14;;;;;;;9.13;2.70;;;;;;;9.45;82.29;101174.00;5032114;28;20029;-74
2022/05/30 00:22:40;;;;;;;10.52;2.10;;;;;;;9.35;82.40;101170.88;5020051;28;20027;-74
2022/05/30 00:25:06;;;;;;;6.65;1.90;;;;;;;9.31;82.76;101175.84;5033620;28;20433;-74
2022/05/30 00:27:32;;;;;;;6.57;2.08;;;;;;;9.26;83.56;101172.13;5031608;28;20025;-74
2022/05/30 00:29:57;;;;;;;8.57;1.88;;;;;;;9.22;84.21;101174.41;5033445;28;20372;-74
2022/05/30 00:32:24;;;;;;;8.68;1.83;;;;;;;9.16;84.21;101175.25;5031855;28;20026;-74
2022/05/30 00:34:50;;;;;;;11.38;2.47;;;;;;;9.11;84.83;101170.47;5012346;28;20033;-74
2022/05/30 00:37:16;;;;;;;9.35;1.95;;;;;;;9.11;85.05;101175.03;5011851;28;20033;-74
2022/05/30 00:39:42;;;;;;;8.13;2.47;;;;;;;9.09;85.13;101172.56;5012257;28;20025;-74
2022/05/30 00:42:14;;;;;;;9.30;2.20;;;;;;;9.13;86.88;101164.84;5023200;28;20032;-74
2022/05/30 00:44:45;;;;;;;6.03;2.20;;;;;;;9.23;85.73;101167.97;5031615;28;20087;-74
2022/05/30 00:47:11;;;;;;;9.65;2.63;;;;;;;9.21;85.73;101164.66;5025145;28;20034;-74
2022/05/30 00:49:39;;;;;;;11.07;2.20;;;;;;;9.21;85.21;101167.38;5011869;28;20029;-74
2022/05/30 00:52:07;;;;;;;13.48;2.38;;;;;;;9.21;85.00;101156.56;5012507;28;20386;-74
2022/05/30 00:54:42;;;;;;;9.70;2.70;;;;;;;9.21;86.56;101159.25;5019197;28;20033;-74
2022/05/30 00:57:21;;;;;;;12.07;2.60;;;;;;;9.20;86.94;101157.59;5012121;28;20065;-74
2022/05/30 01:00:11;;;;;;;9.90;2.72;;;;;;;9.24;85.74;101158.84;5013458;28;20029;-74
2022/05/30 01:02:38;;;;;;;9.48;2.35;;;;;;;9.16;86.05;101159.03;5029409;28;20021;-74
2022/05/30 01:07:52;;;;;;;5.13;1.90;;;;;;;9.14;86.45;101159.25;5021815;28;20687;-74
2022/05/30 01:10:21;;;;;;;8.55;2.08;;;;;;;9.20;86.05;101157.59;5031522;28;20116;-74
2022/05/30 01:12:52;;;;;;;5.72;2.20;;;;;;;9.20;86.10;101155.72;5032214;28;20021;-74
2022/05/30 01:15:37;;;;;;;10.40;2.33;;;;;;;9.15;86.54;101147.41;5029599;28;20041;-74
2022/05/30 01:18:27;;;;;;;10.73;2.30;;;;;;;9.18;86.48;101154.28;5016670;28;20029;-74
2022/05/30 01:21:20;;;;;;;9.82;2.33;;;;;;;9.10;87.83;101155.28;5013775;28;20057;-74
2022/05/30 01:24:00;;;;;;;7.05;2.33;;;;;;;9.08;88.42;101148.47;5016850;28;20029;-74
2022/05/30 01:26:40;;;;;;;13.65;3.00;;;;;;;9.04;87.78;101154.28;5032637;28;20060;-74
2022/05/30 01:29:27;;;;;;;11.43;2.38;;;;;;;9.07;88.35;101154.88;5011685;28;20077;-74
2022/05/30 01:31:54;;;;;;;11.77;2.75;;;;;;;9.01;88.13;101146.59;5012079;28;20026;-74
2022/05/30 01:34:25;;;;;;;12.05;2.42;;;;;;;9.00;88.65;101138.72;5014748;28;20038;-74
2022/05/30 01:36:50;;;;;;;12.73;2.40;;;;;;;8.98;88.75;101144.31;5027999;28;20049;-74
2022/05/30 01:39:16;;;;;;;10.38;2.33;;;;;;;8.94;88.27;101140.34;5014731;28;20076;-74
2022/05/30 01:41:41;;;;;;;10.85;2.38;;;;;;;8.96;88.96;101137.44;5032078;28;20060;-74
2022/05/30 01:44:06;;;;;;;12.23;2.70;;;;;;;8.96;89.17;101132.06;5029469;28;20065;-74
2022/05/30 01:46:32;;;;;;;7.95;2.10;;;;;;;8.96;88.67;101130.16;5011426;28;20030;-74
2022/05/30 01:48:57;;;;;;;12.27;3.00;;;;;;;8.95;89.29;101127.69;5012004;28;20033;-74
2022/05/30 01:51:22;;;;;;;7.28;2.30;;;;;;;8.90;89.04;101127.50;5028591;28;20458;-74
2022/05/30 01:53:49;;;;;;;10.98;2.33;;;;;;;8.99;89.18;101137.03;5030609;28;20367;-74
2022/05/30 01:56:14;;;;;;;8.48;2.50;;;;;;;8.99;89.60;101129.75;5032093;28;20053;-74
2022/05/30 01:58:40;;;;;;;8.75;2.40;;;;;;;9.03;89.01;101132.88;5023660;28;20065;-74
2022/05/30 02:01:16;;;;;;;10.73;3.00;;;;;;;9.02;89.57;101132.03;5009192;28;20084;-74
2022/05/30 02:03:43;;;;;;;9.88;2.70;;;;;;;8.96;89.47;101132.06;5013429;28;20113;-74
2022/05/30 02:06:08;;;;;;;9.75;2.40;;;;;;;8.94;89.71;101134.13;5011333;28;20030;-74
2022/05/30 02:08:33;;;;;;;12.35;2.88;;;;;;;8.93;90.22;101127.06;5012114;28;20034;-74
2022/05/30 02:10:59;;;;;;;7.95;2.55;;;;;;;8.87;89.99;101124.16;5031338;28;20467;-74
2022/05/30 02:13:24;;;;;;;12.68;2.83;;;;;;;8.83;90.43;101122.91;5030779;28;20041;-74
2022/05/30 02:18:36;;;;;;;14.43;2.80;;;;;;;8.78;91.91;101124.56;5014616;28;20510;-74
2022/05/30 02:21:07;;;;;;;10.90;3.00;;;;;;;8.77;92.13;101128.28;5020461;28;20033;-78
2022/05/30 02:23:34;;;;;;;8.25;2.97;;;;;;;8.81;92.08;101121.47;5041118;28;20029;-75
2022/05/30 02:26:02;;;;;;;10.07;3.17;;;;;;;8.80;91.51;101125.19;5017018;28;20095;-76
2022/05/30 02:28:28;;;;;;;12.63;3.22;;;;;;;8.82;92.33;101125.81;5031929;28;20030;-80
2022/05/30 02:30:53;;;;;;;12.40;3.90;;;;;;;8.80;92.45;101123.34;5030061;28;20025;-75
2022/05/30 02:38:47;;;;;;;10.68;3.70;;;;;;;8.81;92.60;101124.97;5033621;28;20091;-72
2022/05/30 02:41:12;;;;;;;18.25;3.80;;;;;;;8.82;93.16;101112.34;5021003;28;20038;-74
2022/05/30 02:43:39;;;;;;;10.15;3.72;;;;;;;8.82;93.36;101109.63;5012502;28;20116;-73
2022/05/30 02:46:04;;;;;;;13.30;4.30;;;;;;;8.81;93.14;101111.47;5011776;28;20056;-73
2022/05/30 02:48:30;;;;;;;14.38;4.53;;;;;;;8.72;93.34;101111.91;5022933;28;20069;-73
2022/05/30 02:50:55;;;;;;;16.10;4.40;;;;;;;8.68;93.57;101122.25;5031064;28;20038;-74
2022/05/30 02:53:20;;;;;;;14.02;4.57;;;;;;;8.58;94.73;101111.06;5030211;28;20030;-72
2022/05/30 02:55:46;;;;;;;17.58;5.03;;;;;;;8.55;94.68;101115.00;5016321;28;20472;-73
2022/05/30 02:58:11;;;;;;;12.05;4.78;;;;;;;8.56;94.79;101115.81;5015021;28;20095;-73
2022/05/30 03:00:36;;;;;;;11.90;4.63;;;;;;;8.55;94.71;101114.16;5028910;28;20073;-73
2022/05/30 03:03:01;;;;;;;14.45;4.85;;;;;;;8.60;95.12;101119.78;5035212;28;20045;-73
2022/05/30 03:05:27;;;;;;;12.98;5.07;;;;;;;8.63;94.74;101124.75;5035457;28;20076;-73
2022/05/30 03:07:52;;;;;;;11.50;4.63;;;;;;;8.67;94.91;101118.75;5034560;28;20044;-72
2022/05/30 03:10:17;;;;;;;16.30;5.18;;;;;;;8.63;94.42;101122.88;5034948;28;20034;-72
2022/05/30 03:12:43;;;;;;;15.68;4.70;;;;;;;8.63;95.19;101122.88;5000550;28;20046;-72
2022/05/30 03:15:09;;;;;;;15.35;5.40;;;;;;;8.67;94.56;101129.53;5033819;28;20049;-73
2022/05/30 03:17:34;;;;;;;16.02;5.30;;;;;;;8.68;94.80;101122.25;5017419;28;20026;-73
2022/05/30 03:19:59;;;;;;;15.05;4.95;;;;;;;8.67;94.27;101129.53;5034639;28;20041;-73
2022/05/30 03:22:24;;;;;;;16.95;5.22;;;;;;;8.63;94.01;101127.44;5034832;28;20129;-73
2022/05/30 03:24:50;;;;;;;12.73;5.03;;;;;;;8.64;94.84;101127.25;5018489;28;20041;-73
2022/05/30 03:27:15;;;;;;;15.07;5.00;;;;;;;8.62;95.07;101133.88;5015205;28;20467;-74
2022/05/30 03:29:40;;;;;;;12.25;5.40;;;;;;;8.65;94.65;101134.31;5015128;28;20034;-74
2022/05/30 03:32:06;;;;;;;12.43;4.95;;;;;;;8.63;95.10;101132.84;5018058;28;20040;-74
2022/05/30 03:34:31;;;;;;;15.80;5.40;;;;;;;8.64;95.49;101132.63;5034734;28;20025;-73
2022/05/30 03:36:56;;;;;;;13.13;4.80;;;;;;;8.65;95.20;101131.63;5032941;28;20033;-73
2022/05/30 03:39:22;;;;;;;16.73;4.93;;;;;;;8.57;94.66;101137.19;5017802;28;20083;-74
2022/05/30 03:41:47;;;;;;;12.68;4.90;;;;;;;8.47;95.01;101134.03;5014863;28;20033;-74
2022/05/30 03:44:12;;;;;;;17.20;5.50;;;;;;;8.48;95.54;101138.41;5034399;28;20108;-73
2022/05/30 03:46:38;;;;;;;15.80;4.60;;;;;;;8.51;95.07;101146.94;5033360;28;20080;-73
2022/05/30 03:49:04;;;;;;;17.60;6.50;;;;;;;8.60;94.73;101150.25;5034189;28;20041;-74
2022/05/30 03:51:30;;;;;;;15.70;4.93;;;;;;;8.54;94.44;101139.47;5034477;28;20040;-73
2022/05/30 03:53:56;;;;;;;14.45;4.90;;;;;;;8.62;94.80;101147.38;5024835;28;20025;-73
2022/05/30 03:56:21;;;;;;;17.20;5.30;;;;;;;8.60;94.35;101144.88;5014535;28;20045;-74
2022/05/30 03:58:46;;;;;;;11.02;4.80;;;;;;;8.66;94.23;101146.75;5014494;28;20025;-73
2022/05/30 04:01:12;;;;;;;12.73;5.18;;;;;;;8.72;94.02;101141.59;5012374;28;20129;-73
2022/05/30 04:03:39;;;;;;;17.05;6.03;;;;;;;8.71;94.08;101150.69;5028806;28;20406;-73
2022/05/30 04:06:04;;;;;;;11.68;4.68;;;;;;;8.71;94.60;101140.75;5033911;28;20311;-73
2022/05/30 04:08:30;;;;;;;11.50;5.25;;;;;;;8.74;94.81;101140.34;5033869;28;20030;-72
2022/05/30 04:10:56;;;;;;;10.15;5.15;;;;;;;8.75;93.75;101136.59;5033656;28;20482;-74
2022/05/30 04:13:22;;;;;;;12.35;5.03;;;;;;;8.74;93.75;101143.03;5016638;28;20060;-74
2022/05/30 04:15:47;;;;;;;12.93;5.30;;;;;;;8.76;94.30;101140.16;5033239;28;20090;-73
2022/05/30 04:18:13;;;;;;;15.50;5.75;;;;;;;8.76;94.66;101142.84;5033694;28;20041;-74
2022/05/30 04:20:38;;;;;;;13.15;5.50;;;;;;;8.75;94.19;101136.59;5033657;28;20030;-72
2022/05/30 04:23:03;;;;;;;12.75;5.28;;;;;;;8.78;93.63;101132.66;5033773;28;20379;-73
2022/05/30 04:25:28;;;;;;;15.63;5.70;;;;;;;8.77;94.07;101126.44;5017541;28;20029;-73
2022/05/30 04:27:54;;;;;;;12.48;5.20;;;;;;;8.76;94.27;101138.25;5012596;28;20030;-73
2022/05/30 04:30:19;;;;;;;18.10;6.00;;;;;;;8.80;93.72;101133.28;5026878;28;20496;-74
2022/05/30 04:32:45;;;;;;;17.63;5.68;;;;;;;8.73;93.80;101143.25;5031786;28;20029;-73
2022/05/30 04:35:11;;;;;;;14.15;6.13;;;;;;;8.59;94.20;101136.97;5027064;28;20049;-72
2022/05/30 04:37:36;;;;;;;15.05;5.97;;;;;;;8.54;94.46;101140.28;5013929;28;20073;-73
2022/05/30 04:40:03;;;;;;;13.60;5.75;;;;;;;8.56;94.83;101138.25;5013559;28;20022;-72
2022/05/30 04:42:28;;;;;;;15.38;6.20;;;;;;;8.58;94.75;101146.94;5013734;28;20069;-72
2022/05/30 04:44:53;;;;;;;11.10;5.50;;;;;;;8.59;94.34;101148.63;5028492;28;20053;-72
2022/05/30 04:47:19;;;;;;;15.05;5.90;;;;;;;8.64;94.29;101151.53;5032189;28;20056;-72
2022/05/30 04:49:46;;;;;;;11.82;5.75;;;;;;;8.63;94.05;101155.25;5020608;28;20038;-73
2022/05/30 04:52:12;;;;;;;16.75;6.28;;;;;;;8.61;94.66;101157.34;5013207;28;20034;-74
2022/05/30 04:54:38;;;;;;;14.20;5.78;;;;;;;8.61;94.78;101149.25;5023922;28;20497;-73
2022/05/30 04:57:05;;;;;;;15.85;6.43;;;;;;;8.63;94.66;101155.25;5033221;28;20068;-73
2022/05/30 04:59:30;;;;;;;16.45;5.65;;;;;;;8.63;93.90;101151.72;5014363;28;20029;-74
2022/05/30 05:01:55;;;;;;;20.38;6.68;;;;;;;8.59;94.18;101148.63;5010830;28;20068;-73
2022/05/30 05:04:21;;;;;;;13.40;6.28;;;;;;;8.54;94.10;101151.09;5030336;28;20026;-74
2022/05/30 05:06:46;;;;;;;15.75;6.50;;;;;;;8.56;94.60;101154.44;5033189;28;20041;-72
2022/05/30 05:09:17;;;;;;;16.48;6.93;;;;;;;8.54;95.00;101151.09;5016804;28;20038;-73
2022/05/30 05:11:47;;;;;;;16.17;6.45;;;;;;;8.57;94.81;101156.06;5011903;28;20038;-73
2022/05/30 05:14:13;;;;;;;14.38;6.38;;;;;;;8.61;94.53;101151.94;5016361;28;20049;-74
2022/05/30 05:16:39;;;;;;;13.95;6.32;;;;;;;8.69;94.15;101159.00;5027908;28;20038;-72
2022/05/30 05:19:06;;;;;;;16.65;6.72;;;;;;;8.75;95.40;101160.88;4999035;28;20041;-72
2022/05/30 05:21:34;;;;;;;14.52;6.30;;;;;;;8.83;94.79;101159.84;5032725;28;20037;-74
2022/05/30 05:24:00;;;;;;;16.77;6.65;;;;;;;8.84;94.76;101162.34;5030796;28;20037;-74
2022/05/30 05:26:26;;;;;;;17.85;6.47;;;;;;;8.80;93.99;101155.72;5051275;28;20040;-74
2022/05/30 05:28:52;;;;;;;12.75;6.07;;;;;;;8.96;95.20;101159.03;5048598;28;20034;-73
2022/05/30 05:31:22;;;;;;;12.63;6.32;;;;;;;8.95;93.50;101166.31;5032845;28;20075;-72
2022/05/30 05:33:49;;;;;;;14.77;6.60;;;;;;;8.97;93.95;101163.41;5032776;28;20390;-74
2022/05/30 05:36:19;;;;;;;15.38;6.40;;;;;;;9.02;93.49;101159.03;5021419;28;20044;-72
2022/05/30 05:38:45;;;;;;;17.40;6.15;;;;;;;9.10;92.87;101159.88;5011671;28;20416;-73
2022/05/30 05:41:10;;;;;;;12.65;6.32;;;;;;;9.18;92.74;101163.19;5012478;28;20088;-74
2022/05/30 05:43:35;;;;;;;16.33;6.30;;;;;;;9.25;93.06;101171.28;5012502;28;20033;-74
2022/05/30 05:46:00;;;;;;;13.52;6.15;;;;;;;9.32;93.02;101174.81;5023329;28;20490;-74
2022/05/30 05:48:26;;;;;;;13.45;6.20;;;;;;;9.46;92.36;101174.81;5031913;28;20037;-73
2022/05/30 05:50:51;;;;;;;14.02;5.47;;;;;;;9.49;91.22;101179.81;5018283;28;20037;-74
2022/05/30 05:53:16;;;;;;;15.82;5.18;;;;;;;9.55;89.89;101181.66;5012705;28;20034;-72
2022/05/30 05:55:41;;;;;;;15.43;4.68;;;;;;;9.66;90.81;101181.03;5011388;28;20034;-73
2022/05/30 05:58:07;;;;;;;11.35;5.03;;;;;;;9.70;89.31;101184.94;5012523;28;20034;-74
2022/05/30 06:00:33;;;;;;;12.10;4.72;;;;;;;9.81;89.05;101185.34;5021074;28;20025;-74
2022/05/30 06:02:58;;;;;;;15.10;4.43;;;;;;;9.85;88.61;101184.72;5032302;28;20205;-73
2022/05/30 06:05:24;;;;;;;12.23;4.32;;;;;;;9.93;87.92;101180.94;5031608;28;20076;-73
2022/05/30 06:07:49;;;;;;;9.75;4.15;;;;;;;9.98;86.13;101180.31;5032023;28;20113;-72
2022/05/30 06:10:15;;;;;;;11.50;3.85;;;;;;;10.00;86.98;101189.88;5013881;28;20407;-74
2022/05/30 06:12:44;;;;;;;12.52;4.40;;;;;;;10.01;85.38;101183.44;5012518;28;20387;-73
2022/05/30 06:15:12;;;;;;;9.93;3.22;;;;;;;10.07;84.21;101171.75;5014163;28;20042;-74
2022/05/30 06:17:41;;;;;;;8.77;3.30;;;;;;;10.17;82.93;101179.41;5017883;28;20044;-73
2022/05/30 06:20:09;;;;;;;8.32;3.38;;;;;;;10.16;82.38;101180.47;5012242;28;20037;-75
2022/05/30 06:22:34;;;;;;;11.45;3.45;;;;;;;10.18;80.36;101182.97;5011114;28;20057;-72
2022/05/30 06:24:59;;;;;;;9.48;2.63;;;;;;;10.21;81.85;101187.94;5012251;28;20030;-73
2022/05/30 06:27:25;;;;;;;8.93;2.00;;;;;;;10.25;76.18;101186.44;5016112;28;20048;-74
2022/05/30 06:29:51;;;;;;;12.73;2.17;;;;;;;10.27;75.76;101184.38;5032132;28;20459;-72
2022/05/30 06:32:16;;;;;;;7.18;1.95;;;;;;;10.30;77.97;101178.53;5027542;28;20029;-73
2022/05/30 06:34:42;;;;;;;8.93;2.55;;;;;;;10.43;77.81;101181.22;5012104;28;20475;-72
2022/05/30 06:37:10;;;;;;;7.53;2.70;;;;;;;10.52;77.88;101186.34;5015881;28;20083;-72
2022/05/30 06:39:36;;;;;;;9.65;3.35;;;;;;;10.62;77.32;101189.44;5015859;28;20045;-72
2022/05/30 06:42:01;;;;;;;9.82;2.78;;;;;;;10.66;76.00;101187.97;5014213;28;20029;-74
2022/05/30 06:44:26;;;;;;;8.38;2.25;;;;;;;10.66;75.08;101184.41;5015979;28;20099;-75
2022/05/30 06:46:51;;;;;;;8.25;2.38;;;;;;;10.68;74.21;101191.25;5025670;28;20396;-74
2022/05/30 06:49:17;;;;;;;6.97;2.53;;;;;;;10.69;74.65;101195.66;5034259;28;20132;-72
2022/05/30 06:51:44;;;;;;;15.10;3.00;;;;;;;10.71;75.77;101188.13;5013536;28;20064;-74
2022/05/30 06:54:09;;;;;;;8.27;2.53;;;;;;;10.75;72.01;101193.91;5011891;28;20084;-73
2022/05/30 06:56:39;;;;;;;7.47;1.98;;;;;;;10.74;71.84;101200.41;5031709;28;20053;-72
2022/05/30 06:59:05;;;;;;;5.13;1.83;;;;;;;10.70;69.54;101202.69;5033812;28;20057;-75
2022/05/30 07:01:34;;;;;;;6.65;2.13;;;;;;;10.68;68.89;101203.97;5013356;28;20061;-72
2022/05/30 07:03:59;;;;;;;8.85;2.15;;;;;;;10.67;69.29;101197.72;5015165;28;20436;-73
2022/05/30 07:06:32;;;;;;;6.97;2.30;;;;;;;10.78;70.66;101199.75;5015269;28;20042;-73
2022/05/30 07:08:58;;;;;;;10.35;1.90;;;;;;;10.97;71.47;101202.53;5015263;28;20034;-73
2022/05/30 07:11:24;;;;;;;11.27;1.98;;;;;;;11.14;72.16;101195.53;5031174;28;20034;-73
2022/05/30 07:13:50;;;;;;;4.75;1.60;;;;;;;11.29;70.42;101197.94;5031606;28;20046;-73
2022/05/30 07:16:17;;;;;;;7.78;1.80;;;;;;;11.40;70.70;101190.09;5021137;28;20037;-75
2022/05/30 07:18:43;;;;;;;7.32;2.78;;;;;;;11.37;69.17;101190.56;5034780;28;20036;-73
2022/05/30 07:21:10;;;;;;;8.95;1.75;;;;;;;11.35;67.27;101193.47;5033699;28;20147;-73
2022/05/30 07:23:37;;;;;;;6.50;1.60;;;;;;;11.44;69.31;101194.84;5016772;28;20037;-73
2022/05/30 07:26:07;;;;;;;7.72;1.80;;;;;;;11.57;69.03;101199.34;5034141;28;20034;-73
2022/05/30 07:28:32;;;;;;;4.30;1.30;;;;;;;11.58;65.91;101198.31;5034931;28;20425;-74
2022/05/30 07:31:06;;;;;;;4.88;1.20;;;;;;;11.56;66.58;101199.56;5032480;28;20045;-75
2022/05/30 07:33:33;;;;;;;5.10;1.30;;;;;;;11.51;65.10;101208.38;5029016;28;20120;-72
2022/05/30 07:35:58;;;;;;;4.85;1.27;;;;;;;11.47;63.72;101208.00;5033905;28;20466;-72
2022/05/30 07:38:24;;;;;;;5.70;1.58;;;;;;;11.38;62.56;101203.06;5034387;28;20040;-74
2022/05/30 07:40:49;;;;;;;4.22;1.30;;;;;;;11.30;62.86;101207.69;5034637;28;20064;-72
2022/05/30 07:43:14;;;;;;;8.38;1.60;;;;;;;11.28;64.36;101204.38;5027042;28;20032;-73
2022/05/30 07:45:41;;;;;;;5.90;1.50;;;;;;;11.36;63.20;101195.16;5014788;28;20053;-74
2022/05/30 07:48:07;;;;;;;5.63;1.55;;;;;;;11.38;61.12;101203.06;5030197;28;20034;-75
2022/05/30 07:50:36;;;;;;;3.80;1.35;;;;;;;11.45;62.36;101199.22;5033440;28;20080;-74
2022/05/30 07:53:02;;;;;;;5.68;1.23;;;;;;;11.45;62.26;101193.81;5023539;28;20048;-74
2022/05/30 07:55:29;;;;;;;4.07;1.60;;;;;;;11.39;61.35;101192.00;5021557;28;20029;-76
2022/05/30 07:57:55;;;;;;;8.05;1.67;;;;;;;11.31;62.23;101193.09;5034500;28;20041;-75
2022/05/30 08:00:25;;;;;;;5.80;1.85;;;;;;;11.31;64.43;101197.72;5033490;28;20535;-72
2022/05/30 08:02:52;;;;;;;4.00;1.60;;;;;;;11.26;61.91;101200.22;5032866;28;20458;-72
2022/05/30 08:05:19;;;;;;;6.40;1.58;;;;;;;11.26;63.05;101205.66;5033083;28;20049;-72
2022/05/30 08:07:45;;;;;;;6.13;1.52;;;;;;;11.30;64.42;101201.47;5018869;28;20079;-74
2022/05/30 08:10:14;;;;;;;5.22;1.70;;;;;;;11.35;64.89;101201.59;5043621;28;20053;-73
2022/05/30 08:12:39;;;;;;;11.40;1.63;;;;;;;11.44;64.13;101189.44;5034405;28;20059;-73
2022/05/30 08:15:06;;;;;;;7.45;2.00;;;;;;;11.65;64.56;101195.50;5022581;28;20077;-73
2022/05/30 08:17:31;;;;;;;3.85;1.40;;;;;;;11.75;61.51;101193.13;5031073;28;20029;-73
2022/05/30 08:19:59;;;;;;;7.22;1.70;;;;;;;11.89;62.09;101194.63;5032790;28;20455;-73
2022/05/30 08:22:24;;;;;;;5.15;1.60;;;;;;;11.99;60.08;101204.19;5032907;28;20116;-73
2022/05/30 08:24:52;;;;;;;5.65;1.23;;;;;;;11.86;56.47;101205.09;5032904;28;20061;-73
2022/05/30 08:27:21;;;;;;;2.35;1.25;;;;;;;11.81;59.65;101200.34;5033167;28;20087;-73
2022/05/30 08:29:47;;;;;;;4.50;1.58;;;;;;;11.77;60.14;101201.84;5033103;28;20031;-73
2022/05/30 08:32:13;;;;;;;6.78;1.58;;;;;;;11.72;59.05;101201.69;5032834;28;20037;-73
2022/05/30 08:34:40;;;;;;;5.63;1.70;;;;;;;11.74;59.70;101196.88;5032964;28;20029;-75
2022/05/30 08:37:07;;;;;;;6.13;1.92;;;;;;;11.71;59.66;101197.31;5032452;28;20036;-74
2022/05/30 08:42:25;;;;;;;6.38;1.55;;;;;;;11.69;57.35;101207.56;5016759;28;20071;-75
2022/05/30 08:44:51;;;;;;;6.43;1.73;;;;;;;11.57;57.84;101209.38;5032336;28;20059;-77
2022/05/30 08:47:57;;;;;;;7.63;1.52;;;;;;;11.58;60.36;101209.13;5033066;28;20466;-77
2022/05/30 08:50:58;;;;;;;4.32;1.60;;;;;;;11.59;60.59;101202.66;5032023;28;20025;-77
2022/05/30 08:53:46;;;;;;;4.95;1.55;;;;;;;11.60;58.76;101206.22;5033021;28;20021;-77
2022/05/30 08:56:29;;;;;;;4.03;1.45;;;;;;;11.49;57.67;101208.59;5033452;28;20034;-77
2022/05/30 08:59:54;;;;;;;6.32;1.58;;;;;;;11.59;59.68;101209.97;5032556;28;20037;-77
2022/05/30 09:02:35;;;;;;;5.28;1.17;;;;;;;11.73;58.96;101205.22;4949768;29;20035;-77
2022/05/30 09:05:06;;;;;;;5.82;1.77;;;;;;;11.74;58.90;101213.13;4952572;29;20102;-77
2022/05/30 09:07:39;;;;;;;4.18;1.52;;;;;;;11.95;60.35;101208.38;5000302;28;20075;-77
2022/05/30 09:10:10;;;;;;;6.57;1.50;;;;;;;12.08;58.06;101215.53;5033059;28;20140;-77
2022/05/30 09:13:00;;;;;;;7.50;1.63;;;;;;;12.13;57.75;101215.69;5032805;28;20120;-77
2022/05/30 09:15:25;;;;;;;2.95;1.58;;;;;;;12.26;56.24;101214.69;5032584;28;20033;-77
2022/05/30 09:18:02;;;;;;;5.93;1.55;;;;;;;12.34;56.80;101212.50;5032977;28;20033;-77
2022/05/30 09:20:30;;;;;;;4.85;1.30;;;;;;;12.43;59.17;101207.59;5032812;28;20077;-77
2022/05/30 09:22:55;;;;;;;5.28;1.60;;;;;;;12.50;58.38;101215.66;5032614;28;20064;-77
2022/05/30 09:25:56;;;;;;;3.25;1.17;;;;;;;12.48;57.53;101213.16;5032340;28;20460;-77
2022/05/30 09:28:24;;;;;;;4.85;1.20;;;;;;;12.43;55.95;101210.31;5032515;28;20421;-77
2022/05/30 09:31:00;;;;;;;3.30;1.20;;;;;;;12.37;55.27;101201.19;5014822;28;20411;-77
2022/05/30 09:33:31;;;;;;;6.30;1.75;;;;;;;12.36;53.30;101213.09;5032618;28;20025;-77
2022/05/30 09:36:28;;;;;;;4.25;1.33;;;;;;;12.40;55.82;101210.78;5032764;28;20053;-77
2022/05/30 09:39:00;;;;;;;5.78;1.50;;;;;;;12.35;54.50;101208.75;5032675;28;20029;-77
2022/05/30 09:41:27;;;;;;;6.88;1.77;;;;;;;12.35;53.67;101213.31;5032031;28;20475;-77
2022/05/30 09:44:08;;;;;;;3.63;1.42;;;;;;;12.42;55.83;101208.66;5032414;28;20029;-77
2022/05/30 09:46:38;;;;;;;4.60;1.65;;;;;;;12.50;55.07;101208.34;5032397;28;20029;-77
2022/05/30 09:49:07;;;;;;;4.47;1.65;;;;;;;12.49;53.13;101212.13;5032349;28;20057;-77
2022/05/30 09:51:42;;;;;;;3.92;1.20;;;;;;;12.56;54.02;101221.00;5032738;28;20029;-77
2022/05/30 09:54:11;;;;;;;4.20;1.42;;;;;;;12.62;55.13;101215.69;5032259;28;20033;-77
2022/05/30 09:56:43;;;;;;;3.83;1.40;;;;;;;12.59;54.00;101209.69;5032438;28;20060;-77
2022/05/30 09:59:24;;;;;;;5.38;1.33;;;;;;;12.73;54.79;101214.94;5014458;28;20032;-77
2022/05/30 10:01:53;;;;;;;8.57;1.60;;;;;;;12.72;54.31;101213.28;5029851;28;20032;-77
2022/05/30 10:04:34;;;;;;;4.50;1.42;;;;;;;12.71;54.55;101211.59;5032180;28;20045;-77
2022/05/30 10:07:19;;;;;;;3.63;1.45;;;;;;;12.75;54.42;101215.53;5032397;28;20033;-77
2022/05/30 10:10:03;;;;;;;10.23;1.58;;;;;;;12.81;54.66;101203.72;5034082;28;20036;-77
2022/05/30 10:12:44;;;;;;;3.60;1.33;;;;;;;12.76;54.94;101217.19;5036098;28;20075;-77
2022/05/30 10:15:35;;;;;;;3.60;1.50;;;;;;;12.74;54.92;101208.44;5036380;28;20045;-77
2022/05/30 10:18:12;;;;;;;3.38;1.20;;;;;;;12.68;53.62;101212.91;5036568;28;20044;-77
2022/05/30 10:20:49;;;;;;;5.85;1.58;;;;;;;12.69;52.85;101213.72;5036345;28;20037;-77
2022/05/30 10:29:51;;;;;;;3.80;1.20;;;;;;;12.64;52.35;101208.19;5012559;28;20052;-77
2022/05/30 10:32:32;;;;;;;3.30;1.45;;;;;;;12.59;52.21;101206.13;5035671;28;20440;-77
2022/05/30 10:35:07;;;;;;;4.28;1.67;;;;;;;12.80;52.84;101214.81;5036545;28;20036;-77
2022/05/30 10:37:45;;;;;;;2.92;1.40;;;;;;;12.98;52.69;101205.78;5034743;28;20506;-77
2022/05/30 10:40:13;;;;;;;2.58;1.35;;;;;;;13.25;53.11;101209.75;5035828;28;20064;-77
2022/05/30 10:43:02;;;;;;;6.43;1.60;;;;;;;13.50;53.82;101219.63;5034722;28;20033;-77
2022/05/30 10:45:46;;;;;;;3.53;1.40;;;;;;;13.76;52.10;101218.31;5038655;28;20032;-76
2022/05/30 10:48:22;;;;;;;4.20;1.30;;;;;;;13.91;50.33;101219.75;5034389;28;20397;-77
2022/05/30 10:50:57;;;;;;;7.47;1.40;;;;;;;13.99;50.39;101217.50;5035861;28;20037;-77
2022/05/30 10:53:47;;;;;;;12.50;1.77;;;;;;;14.11;49.14;101220.16;5036314;28;20489;-77
2022/05/30 10:56:20;;;;;;;4.75;1.38;;;;;;;14.01;47.16;101214.53;5036428;28;20032;-77
2022/05/30 10:59:30;;;;;;;7.90;2.17;;;;;;;13.98;48.87;101218.53;5037551;28;20036;-77
2022/05/30 11:02:03;;;;;;;8.30;1.42;;;;;;;13.76;47.78;101222.94;5017815;28;20400;-77
2022/05/30 11:05:15;;;;;;;3.05;1.23;;;;;;;13.71;49.87;101218.22;5036453;28;20037;-77
2022/05/30 11:07:46;;;;;;;4.07;1.50;;;;;;;13.58;47.89;101213.00;4956047;29;20445;-77
2022/05/30 11:10:33;;;;;;;10.68;1.85;;;;;;;13.58;49.42;101224.69;4955199;29;20051;-77
2022/05/30 11:13:13;;;;;;;5.55;2.00;;;;;;;13.54;51.60;101219.97;5011855;28;20033;-77
2022/05/30 11:15:57;;;;;;;6.00;1.63;;;;;;;13.42;52.08;101219.94;5018924;28;20033;-77
2022/05/30 11:18:53;;;;;;;3.92;1.50;;;;;;;13.23;52.76;101214.59;5018673;28;20029;-77
2022/05/30 11:21:46;;;;;;;5.28;1.80;;;;;;;13.22;53.06;101218.34;5034907;28;20025;-76
2022/05/30 11:24:14;;;;;;;6.63;1.60;;;;;;;13.12;52.14;101223.56;5035412;28;20033;-76
2022/05/30 11:26:55;;;;;;;4.43;1.75;;;;;;;13.10;53.80;101223.78;5035667;28;20497;-76
2022/05/30 11:29:36;;;;;;;8.98;2.05;;;;;;;13.14;54.52;101217.91;5035549;28;20071;-76
2022/05/30 11:32:10;;;;;;;8.57;2.30;;;;;;;13.10;52.71;101225.66;5035831;28;20426;-76
2022/05/30 11:35:13;;;;;;;5.43;1.60;;;;;;;13.12;53.61;101223.56;5035819;28;20025;-76
2022/05/30 11:37:54;;;;;;;33.63;4.70;;;;;;;13.18;53.27;101224.50;5035808;28;20038;-76
2022/05/30 11:40:29;;;;;;;8.25;2.03;;;;;;;13.17;53.19;101220.16;5018110;28;20037;-76
2022/05/30 11:43:00;;;;;;;5.93;1.73;;;;;;;13.25;52.56;101225.22;5035556;28;20030;-76
2022/05/30 11:45:46;;;;;;;6.80;2.00;;;;;;;13.29;52.28;101229.97;5035053;28;20053;-76
2022/05/30 11:48:24;;;;;;;6.50;1.85;;;;;;;13.35;53.01;101227.41;5033736;28;20033;-77
2022/05/30 11:50:59;;;;;;;6.28;2.08;;;;;;;13.33;52.29;101224.91;5034907;28;20390;-76
2022/05/30 11:53:44;;;;;;;5.10;1.83;;;;;;;13.48;54.01;101221.72;5034845;28;20112;-76
2022/05/30 11:56:46;;;;;;;3.35;1.77;;;;;;;13.47;52.73;101229.06;5034059;28;20386;-76
2022/05/30 11:59:11;;;;;;;4.10;1.70;;;;;;;13.45;52.37;101222.19;5031214;28;20492;-76
2022/05/30 12:01:41;;;;;;;5.93;1.80;;;;;;;13.53;53.12;101224.59;5032372;28;20124;-76